createdAt,value
2023-02-24T00:00:31.251Z,100150.91
2023-02-24T00:01:35.813Z,100150.16
2023-02-24T00:02:40.191Z,100148.47
2023-02-24T00:03:44.678Z,100145.95
2023-02-24T00:04:49.036Z,100142.54
2023-02-24T00:05:53.273Z,100147.22
2023-02-24T00:06:57.534Z,100137.59
2023-02-24T00:08:01.827Z,100137.69
2023-02-24T00:09:06.092Z,100140.79
2023-02-24T00:10:10.349Z,100136.69
2023-02-24T00:11:14.596Z,100137.18
2023-02-24T00:12:18.840Z,100138.85
2023-02-24T00:13:23.109Z,100130.16
2023-02-24T00:14:27.363Z,100133.68
2023-02-24T00:15:31.755Z,100138.53
2023-02-24T00:16:36.253Z,100136.69
2023-02-24T00:17:40.592Z,100133.08
2023-02-24T00:18:44.890Z,100133.01
2023-02-24T00:19:49.165Z,100128.41
2023-02-24T00:20:53.419Z,100131.5
2023-02-24T00:21:57.688Z,100125.16
2023-02-24T00:23:01.941Z,100124.25
2023-02-24T00:24:06.223Z,100125.94
2023-02-24T00:25:10.497Z,100122.06
2023-02-24T00:26:14.747Z,100125.48
2023-02-24T00:27:19.002Z,100115.37
2023-02-24T00:28:23.245Z,100117.56
2023-02-24T00:29:27.567Z,100122.13
2023-02-24T00:30:31.836Z,100111.76
2023-02-24T00:31:36.565Z,100114.63
2023-02-24T00:32:41.351Z,100106.33
2023-02-24T00:33:45.816Z,100112.95
2023-02-24T00:34:50.070Z,100106.75
2023-02-24T00:35:54.286Z,100104.91
2023-02-24T00:36:58.573Z,100106.26
2023-02-24T00:38:02.991Z,100107.19
2023-02-24T00:39:07.224Z,100103.33
2023-02-24T00:40:11.500Z,100095.63
2023-02-24T00:41:15.728Z,100097.95
2023-02-24T00:42:19.976Z,100097.23
2023-02-24T00:43:24.244Z,100099.3
2023-02-24T00:44:28.528Z,100087.45
2023-02-24T00:45:32.801Z,100084.97
2023-02-24T00:46:37.246Z,100083.98
2023-02-24T00:47:41.632Z,100085.84
2023-02-24T00:48:45.921Z,100089.52
2023-02-24T00:49:50.224Z,100094.28
2023-02-24T00:50:54.462Z,100087
2023-02-24T00:51:58.972Z,100080.56
2023-02-24T00:53:03.224Z,100074.27
2023-02-24T00:54:07.569Z,100083.14
2023-02-24T00:55:11.815Z,100078.08
2023-02-24T00:56:16.194Z,100080.95
2023-02-24T00:57:20.481Z,100079.28
2023-02-24T00:58:25.086Z,100077.53
2023-02-24T00:59:29.320Z,100081.08
2023-02-24T01:00:33.566Z,100075.27
2023-02-24T01:01:38.174Z,100075.47
2023-02-24T01:02:42.503Z,100075.05
2023-02-24T01:03:46.878Z,100067.84
2023-02-24T01:04:51.208Z,100069.09
2023-02-24T01:05:55.483Z,100070.24
2023-02-24T01:06:59.773Z,100071.87
2023-02-24T01:08:04.095Z,100076.88
2023-02-24T01:09:08.383Z,100075.28
2023-02-24T01:10:12.635Z,100072.71
2023-02-24T01:11:16.914Z,100069.52
2023-02-24T01:12:21.703Z,100073.12
2023-02-24T01:13:26.018Z,100072.53
2023-02-24T01:14:30.289Z,100074.73
2023-02-24T01:15:34.595Z,100073.88
2023-02-24T01:16:38.858Z,100070.52
2023-02-24T01:17:43.138Z,100071.31
2023-02-24T01:18:47.403Z,100074.33
2023-02-24T01:19:51.738Z,100066.63
2023-02-24T01:20:55.991Z,100059.67
2023-02-24T01:22:00.244Z,100063.27
2023-02-24T01:23:04.556Z,100055.05
2023-02-24T01:24:08.808Z,100058.81
2023-02-24T01:25:13.032Z,100053.13
2023-02-24T01:26:17.292Z,100059.66
2023-02-24T01:27:21.596Z,100059.86
2023-02-24T01:28:25.846Z,100057.55
2023-02-24T01:29:30.088Z,100048.82
2023-02-24T01:30:34.354Z,100053.86
2023-02-24T01:31:39.044Z,100050.17
2023-02-24T01:32:44.114Z,100052.36
2023-02-24T01:33:48.690Z,100057.14
2023-02-24T01:34:53.045Z,100052.61
2023-02-24T01:35:57.289Z,100059.64
2023-02-24T01:37:01.613Z,100054.78
2023-02-24T01:38:05.858Z,100043.91
2023-02-24T01:39:10.114Z,100046.67
2023-02-24T01:40:14.392Z,100044
2023-02-24T01:41:20.075Z,100044.48
2023-02-24T01:42:24.904Z,100040.64
2023-02-24T01:43:29.136Z,100034.61
2023-02-24T01:44:33.382Z,100039.45
2023-02-24T01:45:37.685Z,100034.88
2023-02-24T01:46:41.987Z,100032.2
2023-02-24T01:47:46.366Z,100035.3
2023-02-24T01:48:50.633Z,100033.88
2023-02-24T01:49:54.876Z,100034.42
2023-02-24T01:50:59.171Z,100028.25
2023-02-24T01:52:03.414Z,100025.23
2023-02-24T01:53:07.643Z,100027.4
2023-02-24T01:54:11.930Z,100019.22
2023-02-24T01:55:16.213Z,100021.65
2023-02-24T01:56:20.447Z,100018.5
2023-02-24T01:57:24.758Z,100020.92
2023-02-24T01:58:29.019Z,100023.27
2023-02-24T01:59:33.297Z,100016.09
2023-02-24T02:00:37.820Z,100017.82
2023-02-24T02:01:42.660Z,100017.48
2023-02-24T02:02:47.873Z,100011.88
2023-02-24T02:03:52.254Z,100009.72
2023-02-24T02:04:56.497Z,100007.28
2023-02-24T02:06:00.777Z,100008.48
2023-02-24T02:07:05.025Z,100013.58
2023-02-24T02:08:09.292Z,100005.28
2023-02-24T02:09:13.588Z,100011.73
2023-02-24T02:10:17.837Z,100010.42
2023-02-24T02:11:23.230Z,100006.75
2023-02-24T02:12:27.804Z,100012.09
2023-02-24T02:13:32.260Z,100005.22
2023-02-24T02:14:36.562Z,100000.13
2023-02-24T02:15:40.814Z,100001.47
2023-02-24T02:16:45.071Z,100002.81
2023-02-24T02:17:49.326Z,100002.87
2023-02-24T02:18:53.570Z,99996.1
2023-02-24T02:19:57.839Z,100002.12
2023-02-24T02:21:02.095Z,99996.43
2023-02-24T02:22:06.337Z,100004.21
2023-02-24T02:23:10.616Z,100002.87
2023-02-24T02:24:14.843Z,99996.94
2023-02-24T02:25:19.130Z,100002.73
2023-02-24T02:26:23.380Z,99997.78
2023-02-24T02:27:27.660Z,99997.92
2023-02-24T02:28:31.935Z,99995.03
2023-02-24T02:29:36.185Z,99992.09
2023-02-24T02:30:40.531Z,99988.34
2023-02-24T02:31:45.354Z,99992.59
2023-02-24T02:32:50.033Z,99987.91
2023-02-24T02:33:54.505Z,99988.18
2023-02-24T02:34:58.730Z,99982.09
2023-02-24T02:36:02.952Z,99984.67
2023-02-24T02:37:07.165Z,99981.53
2023-02-24T02:38:11.394Z,99984.88
2023-02-24T02:39:15.705Z,99979.63
2023-02-24T02:40:19.977Z,99975.59
2023-02-24T02:41:24.702Z,99984.88
2023-02-24T02:42:28.942Z,99981.45
2023-02-24T02:43:33.234Z,99977.11
2023-02-24T02:44:37.451Z,99978.37
2023-02-24T02:45:41.767Z,99975.44
2023-02-24T02:46:46.098Z,99978.86
2023-02-24T02:47:50.324Z,99974.78
2023-02-24T02:48:54.594Z,99974.3
2023-02-24T02:49:58.850Z,99966.88
2023-02-24T02:51:03.067Z,99973.78
2023-02-24T02:52:07.358Z,99971.34
2023-02-24T02:53:11.668Z,99976.18
2023-02-24T02:54:15.946Z,99975.63
2023-02-24T02:55:20.146Z,99961.25
2023-02-24T02:56:24.395Z,99959.72
2023-02-24T02:57:28.608Z,99968.16
2023-02-24T02:58:32.888Z,99964.59
2023-02-24T02:59:37.121Z,99967.61
2023-02-24T03:00:41.443Z,99964.83
2023-02-24T03:01:45.792Z,99967.84
2023-02-24T03:02:50.040Z,99968.1
2023-02-24T03:03:54.297Z,99960.42
2023-02-24T03:04:58.674Z,99966.3
2023-02-24T03:06:03.001Z,99960.09
2023-02-24T03:07:07.253Z,99959.93
2023-02-24T03:08:11.576Z,99959.47
2023-02-24T03:09:16.176Z,99964.09
2023-02-24T03:10:20.440Z,99961.68
2023-02-24T03:11:24.653Z,99955.25
2023-02-24T03:12:28.880Z,99960.09
2023-02-24T03:13:33.095Z,99957.41
2023-02-24T03:14:37.325Z,99954.92
2023-02-24T03:15:41.575Z,99959.76
2023-02-24T03:16:45.919Z,99959.68
2023-02-24T03:17:50.270Z,99963.36
2023-02-24T03:18:54.502Z,99959.42
2023-02-24T03:19:58.736Z,99957.34
2023-02-24T03:21:02.956Z,99960.77
2023-02-24T03:22:07.421Z,99952.17
2023-02-24T03:23:11.676Z,99958.61
2023-02-24T03:24:15.930Z,99958.44
2023-02-24T03:25:20.170Z,99961.03
2023-02-24T03:26:24.459Z,99963.3
2023-02-24T03:27:28.646Z,99960.22
2023-02-24T03:28:32.886Z,99959.96
2023-02-24T03:29:37.089Z,99958.44
2023-02-24T03:30:41.430Z,99957.62
2023-02-24T03:31:45.987Z,99957.09
2023-02-24T03:32:51.886Z,99949.98
2023-02-24T03:33:56.378Z,99952.67
2023-02-24T03:35:00.628Z,99959.61
2023-02-24T03:36:04.917Z,99953.08
2023-02-24T03:37:09.160Z,99957.2
2023-02-24T03:38:13.399Z,99952.09
2023-02-24T03:39:17.694Z,99941.83
2023-02-24T03:40:21.926Z,99952.53
2023-02-24T03:41:26.142Z,99953.52
2023-02-24T03:42:30.360Z,99947.83
2023-02-24T03:43:34.588Z,99950.98
2023-02-24T03:44:38.871Z,99943.48
2023-02-24T03:45:43.262Z,99945.88
2023-02-24T03:46:47.557Z,99946.28
2023-02-24T03:47:51.791Z,99938.52
2023-02-24T03:48:56.026Z,99943.8
2023-02-24T03:50:00.298Z,99939.67
2023-02-24T03:51:04.497Z,99942.59
2023-02-24T03:52:08.786Z,99936.23
2023-02-24T03:53:13.036Z,99941.35
2023-02-24T03:54:17.310Z,99941.27
2023-02-24T03:55:21.555Z,99943.52
2023-02-24T03:56:25.792Z,99940.34
2023-02-24T03:57:30.029Z,99936.19
2023-02-24T03:58:34.234Z,99938.27
2023-02-24T03:59:38.500Z,99940.61
2023-02-24T04:00:42.791Z,99936.45
2023-02-24T04:01:47.059Z,99933.1
2023-02-24T04:02:51.328Z,99933.1
2023-02-24T04:03:55.571Z,99936.02
2023-02-24T04:04:59.963Z,99937.26
2023-02-24T04:06:04.247Z,99932.58
2023-02-24T04:07:08.480Z,99934.84
2023-02-24T04:08:12.725Z,99927.66
2023-02-24T04:09:16.934Z,99925.77
2023-02-24T04:10:21.175Z,99932.68
2023-02-24T04:11:25.414Z,99925.17
2023-02-24T04:12:29.809Z,99926.76
2023-02-24T04:13:34.114Z,99921.73
2023-02-24T04:14:38.424Z,99920.75
2023-02-24T04:15:42.693Z,99926.66
2023-02-24T04:16:47.357Z,99919.81
2023-02-24T04:17:51.584Z,99917.06
2023-02-24T04:18:55.790Z,99924.49
2023-02-24T04:20:00.042Z,99919.22
2023-02-24T04:21:04.266Z,99919.55
2023-02-24T04:22:08.468Z,99914.11
2023-02-24T04:23:12.682Z,99914.8
2023-02-24T04:24:16.951Z,99919.55
2023-02-24T04:25:21.236Z,99913.7
2023-02-24T04:26:25.451Z,99904.73
2023-02-24T04:27:29.660Z,99911.91
2023-02-24T04:28:33.860Z,99911.42
2023-02-24T04:29:38.105Z,99908.16
2023-02-24T04:30:42.662Z,99909.09
2023-02-24T04:31:47.464Z,99910.68
2023-02-24T04:32:52.197Z,99904.42
2023-02-24T04:33:56.655Z,99902.16
2023-02-24T04:35:00.909Z,99899.06
2023-02-24T04:36:05.125Z,99899.3
2023-02-24T04:37:09.604Z,99905.8
2023-02-24T04:38:13.837Z,99899.98
2023-02-24T04:39:18.076Z,99900.73
2023-02-24T04:40:22.356Z,99902.66
2023-02-24T04:41:26.629Z,99898.03
2023-02-24T04:42:30.867Z,99893.44
2023-02-24T04:43:35.111Z,99891.02
2023-02-24T04:44:39.333Z,99886.16
2023-02-24T04:45:43.557Z,99885.8
2023-02-24T04:46:47.982Z,99888.2
2023-02-24T04:47:52.388Z,99886.57
2023-02-24T04:48:56.651Z,99893.66
2023-02-24T04:50:00.877Z,99890.45
2023-02-24T04:51:05.153Z,99886.05
2023-02-24T04:52:09.385Z,99884.61
2023-02-24T04:53:13.672Z,99888.98
2023-02-24T04:54:17.937Z,99890.89
2023-02-24T04:55:22.179Z,99891.8
2023-02-24T04:56:26.456Z,99884.02
2023-02-24T04:57:30.653Z,99887.98
2023-02-24T04:58:34.882Z,99888.74
2023-02-24T04:59:39.186Z,99882.42
2023-02-24T05:00:43.409Z,99885.72
2023-02-24T05:01:47.691Z,99879.66
2023-02-24T05:02:51.949Z,99878.91
2023-02-24T05:03:56.267Z,99877.75
2023-02-24T05:05:00.843Z,99876.23
2023-02-24T05:06:05.267Z,99874.55
2023-02-24T05:07:09.564Z,99867.51
2023-02-24T05:08:13.798Z,99870.23
2023-02-24T05:09:18.206Z,99864.62
2023-02-24T05:10:22.432Z,99870.95
2023-02-24T05:11:26.659Z,99870.44
2023-02-24T05:12:30.876Z,99866.17
2023-02-24T05:13:35.119Z,99859.05
2023-02-24T05:14:39.327Z,99874.29
2023-02-24T05:15:43.536Z,99865.66
2023-02-24T05:16:47.786Z,99868.91
2023-02-24T05:17:52.005Z,99866.64
2023-02-24T05:18:56.344Z,99869.52
2023-02-24T05:20:00.566Z,99869.84
2023-02-24T05:21:04.853Z,99866.72
2023-02-24T05:22:09.126Z,99868.17
2023-02-24T05:23:13.352Z,99869.19
2023-02-24T05:24:17.704Z,99863.06
2023-02-24T05:25:21.958Z,99868.41
2023-02-24T05:26:26.202Z,99859.23
2023-02-24T05:27:30.450Z,99859.38
2023-02-24T05:28:34.671Z,99859.27
2023-02-24T05:29:38.949Z,99856.39
2023-02-24T05:30:43.252Z,99866.02
2023-02-24T05:31:47.905Z,99854.54
2023-02-24T05:32:52.405Z,99857.96
2023-02-24T05:33:56.628Z,99856.84
2023-02-24T05:35:01.179Z,99856.53
2023-02-24T05:36:06.788Z,99855.16
2023-02-24T05:37:11.113Z,99854.2
2023-02-24T05:38:15.380Z,99856.66
2023-02-24T05:39:19.580Z,99853.04
2023-02-24T05:40:23.859Z,99850.58
2023-02-24T05:41:28.092Z,99855.25
2023-02-24T05:42:32.361Z,99850.87
2023-02-24T05:43:36.601Z,99848.84
2023-02-24T05:44:40.850Z,99847.22
2023-02-24T05:45:45.069Z,99852.01
2023-02-24T05:46:50.432Z,99849.73
2023-02-24T05:47:54.799Z,99849.66
2023-02-24T05:48:59.061Z,99849.73
2023-02-24T05:50:03.272Z,99842.02
2023-02-24T05:51:07.476Z,99850.55
2023-02-24T05:52:11.714Z,99850.55
2023-02-24T05:53:15.979Z,99842.71
2023-02-24T05:54:20.195Z,99849.73
2023-02-24T05:55:24.398Z,99844.55
2023-02-24T05:56:28.605Z,99845.47
2023-02-24T05:57:32.832Z,99851.36
2023-02-24T05:58:37.090Z,99850.7
2023-02-24T05:59:41.323Z,99849.04
2023-02-24T06:00:45.610Z,99839.82
2023-02-24T06:01:50.005Z,99843.63
2023-02-24T06:02:54.487Z,99841.03
2023-02-24T06:03:59.257Z,99841.64
2023-02-24T06:05:03.476Z,99843.34
2023-02-24T06:06:07.675Z,99841.34
2023-02-24T06:07:11.951Z,99841.52
2023-02-24T06:08:16.182Z,99840.69
2023-02-24T06:09:20.417Z,99837.85
2023-02-24T06:10:24.773Z,99834.44
2023-02-24T06:11:29.071Z,99831.35
2023-02-24T06:12:33.424Z,99833.18
2023-02-24T06:13:37.710Z,99834.8
2023-02-24T06:14:41.940Z,99832.97
2023-02-24T06:15:46.148Z,99831.3
2023-02-24T06:16:50.479Z,99833.13
2023-02-24T06:17:54.750Z,99823.51
2023-02-24T06:18:59.032Z,99825.98
2023-02-24T06:20:03.279Z,99825.33
2023-02-24T06:21:07.529Z,99824.47
2023-02-24T06:22:11.839Z,99825.48
2023-02-24T06:23:16.072Z,99828.25
2023-02-24T06:24:20.553Z,99827.92
2023-02-24T06:25:24.766Z,99825.24
2023-02-24T06:26:29.032Z,99826.77
2023-02-24T06:27:33.263Z,99826.64
2023-02-24T06:28:37.537Z,99829.81
2023-02-24T06:29:41.748Z,99826.81
2023-02-24T06:30:46.160Z,99824.73
2023-02-24T06:31:50.702Z,99814.95
2023-02-24T06:32:55.365Z,99826.48
2023-02-24T06:33:59.686Z,99821.64
2023-02-24T06:35:03.899Z,99824.08
2023-02-24T06:36:08.119Z,99819.73
2023-02-24T06:37:12.360Z,99809.67
2023-02-24T06:38:16.566Z,99816.7
2023-02-24T06:39:20.765Z,99812.59
2023-02-24T06:40:24.989Z,99819.05
2023-02-24T06:41:29.191Z,99820.55
2023-02-24T06:42:33.479Z,99817.87
2023-02-24T06:43:37.682Z,99818.12
2023-02-24T06:44:42.034Z,99819.45
2023-02-24T06:45:46.401Z,99818.12
2023-02-24T06:46:50.645Z,99816.86
2023-02-24T06:47:54.902Z,99816.86
2023-02-24T06:48:59.158Z,99812.71
2023-02-24T06:50:03.420Z,99817.22
2023-02-24T06:51:07.655Z,99819.81
2023-02-24T06:52:12.045Z,99820.74
2023-02-24T06:53:16.300Z,99819.81
2023-02-24T06:54:20.503Z,99818.88
2023-02-24T06:55:24.718Z,99817.73
2023-02-24T06:56:30.338Z,99811.78
2023-02-24T06:57:36.061Z,99812.55
2023-02-24T06:58:40.308Z,99814.45
2023-02-24T06:59:44.572Z,99812.52
2023-02-24T07:00:49.036Z,99815.03
2023-02-24T07:01:53.311Z,99818.12
2023-02-24T07:02:57.525Z,99811.62
2023-02-24T07:04:01.920Z,99807.73
2023-02-24T07:05:06.335Z,99816.38
2023-02-24T07:06:10.559Z,99812.27
2023-02-24T07:07:14.889Z,99815.28
2023-02-24T07:08:19.127Z,99813.34
2023-02-24T07:09:23.370Z,99816.06
2023-02-24T07:10:27.632Z,99816.47
2023-02-24T07:11:31.921Z,99824.83
2023-02-24T07:12:36.136Z,99820.69
2023-02-24T07:13:40.451Z,99822.67
2023-02-24T07:14:44.680Z,99842.84
2023-02-24T07:15:48.912Z,99836.06
2023-02-24T07:16:53.222Z,99835.47
2023-02-24T07:17:58.345Z,99837.41
2023-02-24T07:19:02.557Z,99838.91
2023-02-24T07:20:06.782Z,99839.76
2023-02-24T07:21:10.961Z,99841.7
2023-02-24T07:22:15.226Z,99838.25
2023-02-24T07:23:19.468Z,99836.34
2023-02-24T07:24:23.805Z,99837.16
2023-02-24T07:25:28.117Z,99844.05
2023-02-24T07:26:32.359Z,99844.13
2023-02-24T07:27:36.609Z,99842.88
2023-02-24T07:28:40.853Z,99839.27
2023-02-24T07:29:45.089Z,99842.22
2023-02-24T07:30:49.544Z,99837.8
2023-02-24T07:31:54.486Z,99837.27
2023-02-24T07:32:59.021Z,99840.06
2023-02-24T07:34:03.376Z,99830.91
2023-02-24T07:35:07.622Z,99837.79
2023-02-24T07:36:11.835Z,99836.21
2023-02-24T07:37:16.101Z,99830.49
2023-02-24T07:38:20.349Z,99831.91
2023-02-24T07:39:24.564Z,99829.68
2023-02-24T07:40:28.924Z,99831.78
2023-02-24T07:41:33.210Z,99833.28
2023-02-24T07:42:37.414Z,99829.59
2023-02-24T07:43:41.656Z,99833.45
2023-02-24T07:44:45.878Z,99828.86
2023-02-24T07:45:50.427Z,99834.73
2023-02-24T07:46:54.694Z,99827.19
2023-02-24T07:48:01.506Z,99826.37
2023-02-24T07:49:05.741Z,99827.71
2023-02-24T07:50:09.975Z,99822.48
2023-02-24T07:51:14.258Z,99819.89
2023-02-24T07:52:18.487Z,99826.34
2023-02-24T07:53:22.711Z,99824.89
2023-02-24T07:54:26.931Z,99825.91
2023-02-24T07:55:31.235Z,99822.66
2023-02-24T07:56:35.489Z,99819.38
2023-02-24T07:57:39.687Z,99830.09
2023-02-24T07:58:43.908Z,99827.13
2023-02-24T07:59:49.099Z,99820.9
2023-02-24T08:00:53.354Z,99825.69
2023-02-24T08:01:57.568Z,99818.38
2023-02-24T08:03:02.121Z,99829.09
2023-02-24T08:04:06.418Z,99820.13
2023-02-24T08:05:10.824Z,99816.84
2023-02-24T08:06:15.132Z,99816.03
2023-02-24T08:07:19.355Z,99815.63
2023-02-24T08:08:23.566Z,99807.26
2023-02-24T08:09:27.766Z,99813.52
2023-02-24T08:10:31.970Z,99807.02
2023-02-24T08:11:36.207Z,99811.03
2023-02-24T08:12:40.432Z,99803.6
2023-02-24T08:13:44.655Z,99806.88
2023-02-24T08:14:48.908Z,99810.91
2023-02-24T08:15:53.188Z,99816.42
2023-02-24T08:16:57.438Z,99810.13
2023-02-24T08:18:01.683Z,99806.88
2023-02-24T08:19:05.904Z,99806.23
2023-02-24T08:20:10.129Z,99812.16
2023-02-24T08:21:14.376Z,99804.73
2023-02-24T08:22:18.602Z,99813.17
2023-02-24T08:23:22.985Z,99808.34
2023-02-24T08:24:27.250Z,99812.11
2023-02-24T08:25:31.473Z,99803.91
2023-02-24T08:26:35.826Z,99808.34
2023-02-24T08:27:40.193Z,99800.3
2023-02-24T08:28:44.432Z,99804.13
2023-02-24T08:29:48.709Z,99811.95
2023-02-24T08:30:53.431Z,99800.38
2023-02-24T08:31:58.098Z,99807.48
2023-02-24T08:33:02.602Z,99801.31
2023-02-24T08:34:07.078Z,99806.29
2023-02-24T08:35:11.306Z,99802.08
2023-02-24T08:36:15.501Z,99801.48
2023-02-24T08:37:19.718Z,99800.91
2023-02-24T08:38:27.225Z,99809.76
2023-02-24T08:39:31.465Z,99798.99
2023-02-24T08:40:35.811Z,99798.8
2023-02-24T08:41:40.028Z,99800.25
2023-02-24T08:42:44.246Z,99804.35
2023-02-24T08:43:48.509Z,99794.81
2023-02-24T08:44:52.796Z,99798.34
2023-02-24T08:45:57.096Z,99793.18
2023-02-24T08:47:01.691Z,99797.44
2023-02-24T08:48:05.979Z,99802.39
2023-02-24T08:49:10.229Z,99791.02
2023-02-24T08:50:14.454Z,99788.27
2023-02-24T08:51:19.470Z,99787.69
2023-02-24T08:52:24.263Z,99779.86
2023-02-24T08:53:30.736Z,99787.72
2023-02-24T08:54:34.991Z,99786.47
2023-02-24T08:55:39.203Z,99791.46
2023-02-24T08:56:43.871Z,99779.06
2023-02-24T08:57:48.296Z,99787.53
2023-02-24T08:58:52.532Z,99785.72
2023-02-24T08:59:56.765Z,99773.67
2023-02-24T09:01:01.346Z,99774.73
2023-02-24T09:02:06.164Z,99777.98
2023-02-24T09:03:10.441Z,99768.86
2023-02-24T09:04:14.658Z,99778.39
2023-02-24T09:05:18.965Z,99768.94
2023-02-24T09:06:23.188Z,99768.77
2023-02-24T09:07:27.431Z,99775.27
2023-02-24T09:08:31.667Z,99771.78
2023-02-24T09:09:35.883Z,99773.33
2023-02-24T09:10:40.960Z,99767.61
2023-02-24T09:11:45.270Z,99769.61
2023-02-24T09:12:49.524Z,99772
2023-02-24T09:13:53.743Z,99767.91
2023-02-24T09:14:57.950Z,99761.29
2023-02-24T09:16:02.275Z,99764.08
2023-02-24T09:17:07.022Z,99765.09
2023-02-24T09:18:11.350Z,99758.73
2023-02-24T09:19:15.555Z,99751.79
2023-02-24T09:20:19.788Z,99761.98
2023-02-24T09:21:24.162Z,99754.14
2023-02-24T09:22:28.395Z,99753.48
2023-02-24T09:23:32.590Z,99754.95
2023-02-24T09:24:36.828Z,99757.02
2023-02-24T09:25:41.246Z,99752.84
2023-02-24T09:26:45.481Z,99752.02
2023-02-24T09:27:49.715Z,99742.73
2023-02-24T09:28:54.075Z,99748.17
2023-02-24T09:29:58.470Z,99746.55
2023-02-24T09:31:02.754Z,99746.23
2023-02-24T09:32:07.517Z,99746.14
2023-02-24T09:33:12.303Z,99751.17
2023-02-24T09:34:16.800Z,99744.89
2023-02-24T09:35:21.014Z,99737.54
2023-02-24T09:36:25.293Z,99736.31
2023-02-24T09:37:29.560Z,99732.3
2023-02-24T09:38:33.849Z,99733.64
2023-02-24T09:39:38.138Z,99727.95
2023-02-24T09:40:42.344Z,99730.15
2023-02-24T09:41:46.568Z,99730.88
2023-02-24T09:42:50.799Z,99731.73
2023-02-24T09:43:55.017Z,99727.84
2023-02-24T09:44:59.208Z,99724.34
2023-02-24T09:46:03.686Z,99727.11
2023-02-24T09:47:08.207Z,99724.63
2023-02-24T09:48:12.676Z,99720.78
2023-02-24T09:49:18.485Z,99718.84
2023-02-24T09:51:01.909Z,99723.12
2023-02-24T09:52:08.564Z,99723.45
2023-02-24T09:53:12.936Z,99725.8
2023-02-24T09:54:17.238Z,99725.27
2023-02-24T09:55:21.447Z,99721.41
2023-02-24T09:56:25.680Z,99714.08
2023-02-24T09:57:30.086Z,99718.36
2023-02-24T09:58:44.781Z,99709.92
2023-02-24T09:59:49.944Z,99717.35
2023-02-24T10:00:54.286Z,99708.75
2023-02-24T10:01:58.787Z,99701.73
2023-02-24T10:03:03.122Z,99703.48
2023-02-24T10:04:21.726Z,99706.16
2023-02-24T10:05:26.093Z,99703.92
2023-02-24T10:06:30.324Z,99710.95
2023-02-24T10:07:34.536Z,99708.02
2023-02-24T10:08:38.750Z,99705.52
2023-02-24T10:09:43.014Z,99700.7
2023-02-24T10:10:47.266Z,99709.58
2023-02-24T10:11:51.483Z,99717.52
2023-02-24T10:12:55.708Z,99701.88
2023-02-24T10:14:04.469Z,99694.89
2023-02-24T10:15:08.891Z,99696.2
2023-02-24T10:16:13.239Z,99700.87
2023-02-24T10:17:17.514Z,99696.64
2023-02-24T10:18:21.724Z,99694.78
2023-02-24T10:19:25.998Z,99681.22
2023-02-24T10:20:30.254Z,99687.87
2023-02-24T10:21:34.673Z,99682.09
2023-02-24T10:22:38.947Z,99683.07
2023-02-24T10:23:44.343Z,99677.28
2023-02-24T10:24:48.778Z,99681.43
2023-02-24T10:25:53.063Z,99677.14
2023-02-24T10:27:09.095Z,99672.55
2023-02-24T10:28:20.200Z,99678.12
2023-02-24T10:29:24.421Z,99675.77
2023-02-24T10:30:29.230Z,99671.4
2023-02-24T10:41:34.209Z,99650.8
2023-02-24T10:42:38.538Z,99657.98
2023-02-24T10:43:42.940Z,99649.63
2023-02-24T10:45:01.081Z,99652.55
2023-02-24T10:46:07.147Z,99654.3
2023-02-24T10:47:11.864Z,99643.35
2023-02-24T10:48:16.588Z,99641.77
2023-02-24T10:49:20.811Z,99643.1
2023-02-24T10:50:25.055Z,99636.49
2023-02-24T10:51:29.279Z,99640.59
2023-02-24T10:52:33.568Z,99631.75
2023-02-24T10:53:37.860Z,99636.77
2023-02-24T10:54:42.558Z,99634.18
2023-02-24T10:55:46.916Z,99618.05
2023-02-24T10:56:51.146Z,99633.69
2023-02-24T10:58:00.389Z,99631.42
2023-02-24T10:59:04.926Z,99628.5
2023-02-24T11:00:09.188Z,99627.9
2023-02-24T11:01:13.776Z,99622.55
2023-02-24T11:02:18.287Z,99621.73
2023-02-24T11:03:33.614Z,99611.72
2023-02-24T11:04:37.844Z,99615.32
2023-02-24T11:05:42.056Z,99607.62
2023-02-24T11:06:46.311Z,99603.36
2023-02-24T11:07:50.521Z,99606.36
2023-02-24T11:08:54.735Z,99608.63
2023-02-24T11:09:58.979Z,99605.19
2023-02-24T11:11:03.188Z,99598.61
2023-02-24T11:12:07.446Z,99595.5
2023-02-24T11:13:11.733Z,99597.77
2023-02-24T11:14:15.944Z,99593.95
2023-02-24T11:15:20.203Z,99590.43
2023-02-24T11:16:24.584Z,99577.25
2023-02-24T11:17:29.168Z,99587.84
2023-02-24T11:18:33.458Z,99581.58
2023-02-24T11:19:37.732Z,99575.8
2023-02-24T11:20:50.514Z,99570.88
2023-02-24T11:21:54.797Z,99569.34
2023-02-24T11:22:59.108Z,99564.28
2023-02-24T11:24:03.327Z,99559.86
2023-02-24T11:25:07.555Z,99556.33
2023-02-24T11:26:11.765Z,99549.73
2023-02-24T11:27:16.033Z,99551.18
2023-02-24T11:28:20.538Z,99552.2
2023-02-24T11:29:24.771Z,99556.25
2023-02-24T11:30:29.033Z,99544.49
2023-02-24T11:31:33.650Z,99542.39
2023-02-24T11:32:38.440Z,99543.48
2023-02-24T11:33:42.915Z,99543.04
2023-02-24T11:34:47.137Z,99541.38
2023-02-24T11:35:51.344Z,99531.8
2023-02-24T11:36:55.656Z,99534.8
2023-02-24T11:37:59.909Z,99521.84
2023-02-24T11:39:21.488Z,99535.9
2023-02-24T11:40:25.866Z,99529.02
2023-02-24T11:41:30.129Z,99526.17
2023-02-24T11:42:34.363Z,99531.93
2023-02-24T11:43:38.636Z,99528.69
2023-02-24T11:44:42.890Z,99523.3
2023-02-24T11:45:47.157Z,99525.23
2023-02-24T11:46:51.439Z,99518.27
2023-02-24T11:47:55.658Z,99518.39
2023-02-24T11:48:59.927Z,99518.55
2023-02-24T11:50:06.102Z,99518.14
2023-02-24T11:51:10.338Z,99513.44
2023-02-24T11:52:14.575Z,99503.67
2023-02-24T11:53:18.793Z,99509.19
2023-02-24T11:54:22.993Z,99509.75
2023-02-24T11:55:28.990Z,99507.59
2023-02-24T11:56:33.363Z,99510.55
2023-02-24T11:57:37.596Z,99512.14
2023-02-24T11:58:41.889Z,99507.99
2023-02-24T11:59:46.155Z,99508.91
2023-02-24T12:00:50.390Z,99504.44
2023-02-24T12:01:54.723Z,99508.2
2023-02-24T12:02:59.158Z,99499.98
2023-02-24T12:04:05.551Z,99503.51
2023-02-24T12:05:09.836Z,99506.75
2023-02-24T12:06:14.189Z,99498.95
2023-02-24T12:07:18.576Z,99503.45
2023-02-24T12:08:22.833Z,99502.67
2023-02-24T12:09:27.056Z,99500.41
2023-02-24T12:10:32.169Z,99501.42
2023-02-24T12:11:36.378Z,99500.61
2023-02-24T12:12:40.584Z,99497.78
2023-02-24T12:13:44.819Z,99493.27
2023-02-24T12:14:49.091Z,99493.64
2023-02-24T12:15:53.400Z,99487.67
2023-02-24T12:16:57.787Z,99490.56
2023-02-24T12:18:02.060Z,99493.41
2023-02-24T12:19:06.331Z,99494.95
2023-02-24T12:20:10.596Z,99484.81
2023-02-24T12:21:14.840Z,99487.17
2023-02-24T12:22:19.114Z,99483.81
2023-02-24T12:23:23.339Z,99483.61
2023-02-24T12:24:27.546Z,99482.36
2023-02-24T12:25:31.799Z,99477.41
2023-02-24T12:26:36.353Z,99475.34
2023-02-24T12:27:40.684Z,99471.94
2023-02-24T12:28:45.293Z,99476.53
2023-02-24T12:29:49.654Z,99474.47
2023-02-24T12:30:54.109Z,99468.47
2023-02-24T12:31:58.734Z,99473.09
2023-02-24T12:33:03.479Z,99472.69
2023-02-24T12:34:07.884Z,99468.67
2023-02-24T12:35:12.146Z,99465.27
2023-02-24T12:36:16.397Z,99463.77
2023-02-24T12:37:20.636Z,99464.7
2023-02-24T12:38:24.891Z,99455.51
2023-02-24T12:39:29.116Z,99465.64
2023-02-24T12:40:33.333Z,99458.63
2023-02-24T12:41:38.470Z,99456.67
2023-02-24T12:42:42.716Z,99452.34
2023-02-24T12:43:47.024Z,99454.32
2023-02-24T12:44:51.284Z,99445.88
2023-02-24T12:45:55.597Z,99454.41